createdAt,value
2023-03-07T00:01:26.272Z,11.00
2023-03-07T00:03:53.326Z,10.80
2023-03-07T00:06:20.163Z,11.70
2023-03-07T00:08:53.128Z,10.50
2023-03-07T00:11:20.185Z,10.57
2023-03-07T00:13:47.620Z,10.13
2023-03-07T00:16:17.027Z,10.73
2023-03-07T00:18:44.266Z,9.37
2023-03-07T00:21:15.412Z,9.20
2023-03-07T00:23:44.195Z,9.47
2023-03-07T00:26:16.949Z,9.17
2023-03-07T00:28:46.854Z,7.43
2023-03-07T00:31:14.448Z,6.83
2023-03-07T00:33:41.785Z,6.47
2023-03-07T00:36:14.946Z,6.87
2023-03-07T00:38:42.343Z,5.47
2023-03-07T00:41:13.186Z,4.73
2023-03-07T00:43:40.984Z,5.30
2023-03-07T00:46:08.578Z,4.97
2023-03-07T00:48:37.555Z,4.77
2023-03-07T00:51:06.133Z,5.00
2023-03-07T00:53:33.104Z,5.67
2023-03-07T00:56:05.641Z,7.30
2023-03-07T00:58:34.903Z,6.37
2023-03-07T01:01:03.474Z,7.00
2023-03-07T01:03:32.199Z,7.80
2023-03-07T01:06:03.453Z,8.33
2023-03-07T01:08:30.313Z,9.30
2023-03-07T01:11:02.271Z,9.50
2023-03-07T01:13:29.912Z,9.97
2023-03-07T01:16:06.234Z,11.40
2023-03-07T01:18:33.027Z,12.03
2023-03-07T01:20:59.824Z,12.73
2023-03-07T01:23:26.475Z,13.57
2023-03-07T01:25:53.138Z,12.87
2023-03-07T01:28:19.885Z,13.60
2023-03-07T01:30:56.154Z,13.87
2023-03-07T01:33:22.807Z,13.57
2023-03-07T01:35:49.567Z,12.93
2023-03-07T01:38:16.289Z,11.37
2023-03-07T01:40:43.056Z,10.17
2023-03-07T01:43:39.306Z,9.87
2023-03-07T01:46:17.961Z,8.27
2023-03-07T01:48:54.050Z,9.40
2023-03-07T01:51:23.744Z,8.00
2023-03-07T01:53:52.475Z,8.47
2023-03-07T01:56:20.602Z,7.90
2023-03-07T01:58:47.728Z,7.57
2023-03-07T02:01:15.190Z,6.97
2023-03-07T02:03:53.433Z,6.20
2023-03-07T02:06:20.864Z,6.00
2023-03-07T02:08:49.676Z,6.10
2023-03-07T02:11:16.799Z,6.03
2023-03-07T02:13:43.606Z,5.97
2023-03-07T02:16:10.405Z,6.70
2023-03-07T02:18:44.624Z,5.63
2023-03-07T02:21:49.822Z,4.57
2023-03-07T02:24:33.638Z,4.57
2023-03-07T02:27:00.349Z,4.30
2023-03-07T02:29:27.075Z,4.53
2023-03-07T02:31:53.854Z,4.37
2023-03-07T02:34:22.193Z,3.87
2023-03-07T02:36:53.171Z,4.57
2023-03-07T02:39:22.126Z,4.70
2023-03-07T02:41:49.977Z,4.83
2023-03-07T02:44:16.791Z,4.30
2023-03-07T02:46:43.581Z,4.13
2023-03-07T02:49:10.338Z,4.37
2023-03-07T02:51:37.106Z,3.97
2023-03-07T02:54:03.867Z,3.70
2023-03-07T02:56:31.187Z,4.17
2023-03-07T02:58:57.915Z,3.53
2023-03-07T03:01:24.601Z,3.93
2023-03-07T03:03:51.504Z,3.67
2023-03-07T03:06:18.310Z,3.50
2023-03-07T03:08:45.018Z,3.30
2023-03-07T03:11:11.755Z,4.07
2023-03-07T03:13:39.120Z,3.67
2023-03-07T03:16:06.145Z,3.67
2023-03-07T03:18:33.158Z,3.67
2023-03-07T03:20:59.974Z,3.63
2023-03-07T03:23:29.888Z,3.27
2023-03-07T03:26:01.475Z,4.50
2023-03-07T03:28:29.106Z,3.57
2023-03-07T03:31:04.698Z,4.00
2023-03-07T03:33:32.481Z,4.00
2023-03-07T03:36:00.681Z,3.43
2023-03-07T03:38:27.709Z,3.87
2023-03-07T03:40:54.370Z,3.37
2023-03-07T03:43:21.238Z,3.50
2023-03-07T03:45:58.196Z,3.60
2023-03-07T03:48:25.523Z,3.33
2023-03-07T03:51:04.993Z,3.57
2023-03-07T03:53:33.157Z,3.83
2023-03-07T03:56:05.934Z,3.33
2023-03-07T03:58:33.498Z,3.77
2023-03-07T04:01:07.732Z,3.70
2023-03-07T04:03:46.099Z,3.40
2023-03-07T04:06:15.957Z,3.60
2023-03-07T04:08:42.775Z,4.07
2023-03-07T04:11:09.501Z,4.20
2023-03-07T04:13:36.513Z,3.87
2023-03-07T04:16:03.972Z,3.97
2023-03-07T04:18:30.967Z,4.60
2023-03-07T04:20:58.154Z,4.00
2023-03-07T04:23:25.542Z,3.80
2023-03-07T04:25:57.461Z,3.77
2023-03-07T04:28:26.166Z,4.13
2023-03-07T04:30:53.229Z,3.90
2023-03-07T04:33:20.650Z,3.60
2023-03-07T04:35:47.351Z,3.60
2023-03-07T04:38:15.310Z,3.70
2023-03-07T04:40:42.242Z,3.03
2023-03-07T04:43:08.912Z,3.53
2023-03-07T04:45:39.756Z,3.10
2023-03-07T04:48:06.978Z,3.47
2023-03-07T04:50:33.678Z,3.07
2023-03-07T04:53:00.406Z,3.07
2023-03-07T04:55:27.102Z,3.50
2023-03-07T04:57:53.785Z,4.03
2023-03-07T05:00:20.768Z,3.30
2023-03-07T05:02:48.597Z,3.63
2023-03-07T05:05:15.946Z,3.40
2023-03-07T05:07:43.827Z,4.00
2023-03-07T05:10:11.291Z,4.30
2023-03-07T05:12:37.973Z,4.10
2023-03-07T05:15:05.335Z,3.73
2023-03-07T05:17:32.199Z,3.77
2023-03-07T05:19:58.947Z,3.90
2023-03-07T05:22:25.684Z,4.10
2023-03-07T05:24:52.436Z,4.63
2023-03-07T05:27:19.110Z,3.63
2023-03-07T05:29:45.888Z,3.53
2023-03-07T05:32:12.727Z,3.90
2023-03-07T05:34:39.384Z,3.73
2023-03-07T05:37:06.084Z,3.57
2023-03-07T05:39:32.894Z,2.67
2023-03-07T05:41:59.568Z,2.13
2023-03-07T05:44:26.252Z,1.60
2023-03-07T05:46:52.995Z,1.87
2023-03-07T05:49:19.828Z,1.47
2023-03-07T05:51:46.577Z,1.80
2023-03-07T05:54:13.359Z,1.70
2023-03-07T05:56:40.064Z,1.20
2023-03-07T05:59:07.848Z,1.40
2023-03-07T06:01:34.770Z,1.33
2023-03-07T06:04:01.476Z,1.17
2023-03-07T06:06:28.527Z,2.13
2023-03-07T06:08:55.189Z,1.40
2023-03-07T06:11:22.083Z,1.27
2023-03-07T06:13:48.721Z,2.27
2023-03-07T06:16:15.493Z,1.40
2023-03-07T06:18:42.335Z,2.00
2023-03-07T06:21:10.386Z,1.60
2023-03-07T06:23:37.522Z,1.70
2023-03-07T06:26:04.846Z,1.90
2023-03-07T06:28:32.895Z,1.93
2023-03-07T06:30:59.896Z,2.17
2023-03-07T06:33:26.827Z,1.93
2023-03-07T06:35:53.623Z,2.60
2023-03-07T06:38:20.479Z,2.00
2023-03-07T06:40:56.366Z,2.40
2023-03-07T06:43:23.428Z,1.80
2023-03-07T06:45:50.153Z,1.90
2023-03-07T06:48:18.145Z,2.37
2023-03-07T06:50:45.515Z,2.37
2023-03-07T06:53:12.168Z,1.73
2023-03-07T06:55:38.929Z,2.07
2023-03-07T06:58:05.637Z,2.33
2023-03-07T07:00:32.335Z,1.93
2023-03-07T07:02:59.198Z,2.20
2023-03-07T07:05:26.130Z,2.00
2023-03-07T07:07:52.785Z,2.10
2023-03-07T07:10:19.538Z,2.33
2023-03-07T07:12:46.169Z,2.30
2023-03-07T07:15:12.821Z,1.67
2023-03-07T07:17:39.494Z,1.80
2023-03-07T07:20:11.505Z,1.70
2023-03-07T07:22:38.200Z,1.80
2023-03-07T07:25:05.281Z,2.03
2023-03-07T07:27:31.923Z,1.87
2023-03-07T07:29:58.547Z,1.53
2023-03-07T07:32:25.727Z,1.83
2023-03-07T07:34:52.468Z,1.50
2023-03-07T07:37:19.141Z,1.80
2023-03-07T07:39:45.892Z,1.83
2023-03-07T07:42:12.869Z,1.90
2023-03-07T07:44:39.558Z,1.70
2023-03-07T07:47:06.265Z,2.37
2023-03-07T07:49:33.005Z,1.80
2023-03-07T07:51:59.675Z,1.80
2023-03-07T07:54:26.421Z,2.00
2023-03-07T07:56:53.116Z,2.23
2023-03-07T07:59:19.880Z,2.10
2023-03-07T08:01:46.543Z,2.27
2023-03-07T08:04:13.186Z,2.03
2023-03-07T08:06:39.900Z,2.37
2023-03-07T08:09:06.569Z,2.67
2023-03-07T08:11:33.400Z,3.03
2023-03-07T08:14:00.126Z,3.10
2023-03-07T08:16:26.881Z,3.13
2023-03-07T08:19:01.135Z,2.60
2023-03-07T08:21:28.557Z,2.50
2023-03-07T08:23:56.039Z,2.67
2023-03-07T08:26:23.482Z,2.57
2023-03-07T08:28:50.169Z,2.57
2023-03-07T08:31:19.843Z,2.50
2023-03-07T08:33:47.845Z,2.50
2023-03-07T08:36:15.233Z,2.87
2023-03-07T08:38:42.519Z,2.30
2023-03-07T08:41:09.786Z,2.23
2023-03-07T08:43:37.378Z,2.20
2023-03-07T08:46:04.691Z,2.10
2023-03-07T08:48:31.708Z,2.47
2023-03-07T08:51:03.878Z,2.80
2023-03-07T08:53:30.605Z,2.43
2023-03-07T08:55:57.268Z,2.17
2023-03-07T08:58:23.946Z,1.83
2023-03-07T09:00:50.655Z,2.43
2023-03-07T09:03:17.384Z,2.43
2023-03-07T09:05:44.392Z,2.27
2023-03-07T09:08:12.119Z,2.53
2023-03-07T09:10:38.832Z,2.53
2023-03-07T09:13:05.564Z,2.30
2023-03-07T09:15:32.239Z,2.17
2023-03-07T09:17:58.924Z,1.93
2023-03-07T09:20:25.585Z,2.30
2023-03-07T09:22:54.156Z,2.10
2023-03-07T09:25:21.079Z,2.17
2023-03-07T09:27:47.754Z,2.37
2023-03-07T09:30:15.591Z,2.20
2023-03-07T09:32:42.768Z,2.67
2023-03-07T09:35:10.354Z,2.60
2023-03-07T09:37:37.296Z,2.80
2023-03-07T09:40:08.421Z,2.87
2023-03-07T09:43:00.171Z,2.90
2023-03-07T09:45:58.951Z,2.93
2023-03-07T09:49:02.670Z,3.53
2023-03-07T09:51:40.972Z,4.27
2023-03-07T09:54:28.523Z,4.43
2023-03-07T09:57:00.744Z,4.23
2023-03-07T09:59:38.202Z,4.83
2023-03-07T10:02:26.316Z,5.43
2023-03-07T10:05:01.840Z,5.23
2023-03-07T10:07:29.490Z,5.23
2023-03-07T10:10:01.501Z,5.83
2023-03-07T10:12:53.050Z,7.60
2023-03-07T10:15:36.160Z,6.57
2023-03-07T10:18:17.196Z,8.10
2023-03-07T10:20:58.693Z,7.37
2023-03-07T10:24:08.109Z,6.90
2023-03-07T10:26:48.879Z,7.40
2023-03-07T10:29:19.060Z,7.10
2023-03-07T10:31:55.182Z,7.93
2023-03-07T10:34:30.733Z,7.47
2023-03-07T10:37:12.214Z,6.73
2023-03-07T10:39:53.238Z,6.77
2023-03-07T10:42:22.769Z,6.80
2023-03-07T10:44:51.054Z,6.90
2023-03-07T10:47:26.407Z,6.90
2023-03-07T10:50:00.559Z,6.93
2023-03-07T10:52:47.384Z,7.40
2023-03-07T10:55:29.972Z,6.83
2023-03-07T10:58:17.079Z,6.67
2023-03-07T11:00:44.716Z,5.83
2023-03-07T11:03:28.964Z,6.90
2023-03-07T11:05:55.704Z,6.47
2023-03-07T11:08:29.544Z,6.27
2023-03-07T11:10:56.265Z,6.03
2023-03-07T11:13:24.523Z,5.23
2023-03-07T11:16:00.189Z,5.30
2023-03-07T11:18:40.690Z,4.47
2023-03-07T11:21:28.624Z,4.57
2023-03-07T11:24:07.007Z,3.60
2023-03-07T11:26:40.110Z,2.57
2023-03-07T11:29:09.700Z,2.50
2023-03-07T11:32:13.908Z,2.40
2023-03-07T11:34:59.359Z,2.63
2023-03-07T11:37:31.527Z,3.03
2023-03-07T11:40:03.834Z,2.60
2023-03-07T11:42:37.296Z,3.97
2023-03-07T11:45:30.372Z,3.70
2023-03-07T11:47:56.974Z,3.80
2023-03-07T11:50:28.910Z,3.57
2023-03-07T11:53:16.117Z,2.90
2023-03-07T11:56:09.273Z,2.80
2023-03-07T11:58:47.602Z,2.60
2023-03-07T12:01:45.225Z,2.43
2023-03-07T12:04:36.806Z,2.20
2023-03-07T12:07:33.742Z,2.10
2023-03-07T12:10:48.103Z,1.73
2023-03-07T12:13:36.024Z,1.60
2023-03-07T12:16:19.673Z,2.43
2023-03-07T12:19:14.664Z,1.67
2023-03-07T12:22:13.557Z,1.60
2023-03-07T12:24:43.074Z,1.20
2023-03-07T12:27:17.244Z,1.30
2023-03-07T12:29:54.523Z,1.20
2023-03-07T12:32:29.289Z,1.67
2023-03-07T12:34:59.091Z,1.70
2023-03-07T12:37:33.361Z,1.33
2023-03-07T12:40:09.904Z,1.43
2023-03-07T12:42:44.651Z,1.80
2023-03-07T12:45:23.066Z,1.80
2023-03-07T12:47:57.844Z,1.90
2023-03-07T12:50:34.315Z,1.80
2023-03-07T12:53:30.435Z,1.60
2023-03-07T12:56:19.681Z,1.47
2023-03-07T12:59:12.895Z,1.60
2023-03-07T13:01:48.094Z,1.37
2023-03-07T13:04:17.791Z,1.60
2023-03-07T13:06:45.645Z,1.30
2023-03-07T13:09:24.988Z,1.33
2023-03-07T13:12:29.503Z,1.63
2023-03-07T13:15:02.159Z,1.40
2023-03-07T13:17:33.207Z,1.20
2023-03-07T13:20:15.313Z,1.27
2023-03-07T13:22:42.767Z,1.20
2023-03-07T13:25:27.707Z,1.50
2023-03-07T13:27:56.496Z,1.20
2023-03-07T13:30:23.397Z,1.23
2023-03-07T13:32:54.337Z,1.70
2023-03-07T13:35:39.226Z,1.27
2023-03-07T13:38:15.169Z,1.13
2023-03-07T13:40:45.117Z,1.60
2023-03-07T13:43:26.316Z,2.00
2023-03-07T13:45:56.880Z,1.63
2023-03-07T13:48:32.218Z,1.60
2023-03-07T13:51:01.930Z,1.80
2023-03-07T13:53:31.809Z,1.83
2023-03-07T13:56:10.650Z,1.80
2023-03-07T13:58:47.793Z,1.80
2023-03-07T14:01:18.740Z,1.50
2023-03-07T14:03:50.200Z,1.90
2023-03-07T14:06:22.801Z,1.80
2023-03-07T14:08:50.996Z,1.73
2023-03-07T14:11:28.159Z,1.60
2023-03-07T14:13:54.863Z,1.80
2023-03-07T14:16:33.984Z,2.27
2023-03-07T14:19:09.163Z,2.30
2023-03-07T14:22:03.781Z,2.17
2023-03-07T14:24:40.917Z,1.67
2023-03-07T14:27:13.812Z,1.80
2023-03-07T14:29:56.984Z,1.70
2023-03-07T14:32:26.137Z,1.13
2023-03-07T14:34:53.403Z,1.30
2023-03-07T14:37:29.007Z,1.13
2023-03-07T14:39:58.942Z,1.00
2023-03-07T14:42:36.617Z,1.20
2023-03-07T14:45:19.099Z,1.40
2023-03-07T14:48:23.930Z,1.00
2023-03-07T14:50:51.098Z,1.60
2023-03-07T14:53:26.623Z,1.27
2023-03-07T14:55:55.270Z,1.20
2023-03-07T14:58:25.600Z,1.20
2023-03-07T15:01:01.345Z,1.20
2023-03-07T15:03:29.260Z,1.00
2023-03-07T15:05:58.899Z,1.30
2023-03-07T15:08:35.236Z,1.30
2023-03-07T15:11:07.622Z,1.50
2023-03-07T15:14:00.865Z,1.40
2023-03-07T15:16:34.295Z,1.40
2023-03-07T15:19:20.056Z,1.30
2023-03-07T15:21:57.998Z,1.20
2023-03-07T15:24:35.513Z,1.33
2023-03-07T15:27:02.944Z,1.47
2023-03-07T15:29:32.787Z,1.67
2023-03-07T15:32:07.145Z,1.83
2023-03-07T15:34:37.545Z,1.70
2023-03-07T15:37:34.487Z,1.60
2023-03-07T15:40:22.379Z,1.60
2023-03-07T15:42:51.226Z,2.00
2023-03-07T15:45:33.314Z,1.60
2023-03-07T15:48:43.446Z,1.70
2023-03-07T15:51:22.640Z,1.57
2023-03-07T15:54:21.970Z,1.53
2023-03-07T15:56:59.431Z,1.40
2023-03-07T15:59:37.114Z,1.60
2023-03-07T16:02:34.944Z,1.50
2023-03-07T16:05:24.831Z,2.63
2023-03-07T16:07:53.679Z,2.80
2023-03-07T16:10:21.483Z,2.30
2023-03-07T16:12:49.405Z,2.10
2023-03-07T16:15:18.399Z,1.97
2023-03-07T16:17:46.006Z,2.13
2023-03-07T16:20:30.869Z,3.00
2023-03-07T16:22:57.850Z,2.97
2023-03-07T16:25:28.272Z,2.70
2023-03-07T16:27:57.948Z,2.97
2023-03-07T16:30:27.931Z,4.97
2023-03-07T16:32:55.535Z,3.80
2023-03-07T16:35:25.317Z,3.00
2023-03-07T16:37:52.676Z,2.97
2023-03-07T16:40:20.286Z,2.70
2023-03-07T16:42:50.361Z,3.10
2023-03-07T16:45:24.761Z,3.00
2023-03-07T16:47:53.331Z,3.50
2023-03-07T16:50:24.285Z,3.73
2023-03-07T16:52:51.029Z,3.80
2023-03-07T16:55:18.473Z,3.70
2023-03-07T16:57:47.820Z,4.30
2023-03-07T17:00:17.587Z,3.60
2023-03-07T17:02:46.009Z,4.23
2023-03-07T17:05:19.297Z,4.17
2023-03-07T17:07:46.476Z,4.00
2023-03-07T17:10:13.736Z,4.43
2023-03-07T17:12:42.202Z,4.83
2023-03-07T17:15:15.119Z,4.93
2023-03-07T17:17:42.302Z,4.13
2023-03-07T17:20:12.919Z,5.07
2023-03-07T17:22:39.560Z,4.83
2023-03-07T17:25:06.714Z,4.17
2023-03-07T17:27:35.262Z,3.83
2023-03-07T17:30:01.919Z,3.40
2023-03-07T17:32:28.788Z,2.73
2023-03-07T17:34:55.501Z,2.73
2023-03-07T17:37:22.176Z,2.70
2023-03-07T17:39:48.837Z,2.63
2023-03-07T17:42:15.577Z,2.80
2023-03-07T17:44:42.239Z,2.80
2023-03-07T17:47:08.957Z,2.53
2023-03-07T17:49:38.397Z,2.90
2023-03-07T17:52:06.946Z,2.50
2023-03-07T17:54:34.492Z,3.10
2023-03-07T17:57:01.738Z,3.40
2023-03-07T17:59:30.927Z,3.83
2023-03-07T18:01:58.012Z,3.67
2023-03-07T18:04:24.683Z,4.00
2023-03-07T18:06:51.452Z,3.60
2023-03-07T18:09:18.746Z,4.43
2023-03-07T18:11:45.471Z,5.43
2023-03-07T18:14:12.640Z,5.80
2023-03-07T18:16:39.388Z,5.43
2023-03-07T18:19:08.316Z,5.37
2023-03-07T18:21:38.968Z,5.37
2023-03-07T18:24:20.558Z,4.33
2023-03-07T18:26:49.565Z,3.80
2023-03-07T18:29:16.458Z,3.90
2023-03-07T18:31:43.352Z,4.07
2023-03-07T18:34:10.555Z,3.60
2023-03-07T18:36:37.383Z,3.70
2023-03-07T18:39:04.610Z,4.03
2023-03-07T18:41:31.751Z,4.53
2023-03-07T18:43:59.225Z,3.90
2023-03-07T18:46:30.429Z,4.20
2023-03-07T18:48:58.597Z,4.20
2023-03-07T18:51:26.988Z,4.40
2023-03-07T18:54:03.541Z,4.50
2023-03-07T18:56:30.881Z,5.07
2023-03-07T18:59:01.481Z,4.80
2023-03-07T19:01:34.012Z,4.60
2023-03-07T19:04:03.564Z,4.43
2023-03-07T19:06:39.620Z,4.60
2023-03-07T19:09:07.985Z,4.20
2023-03-07T19:11:35.989Z,4.03
2023-03-07T19:14:02.768Z,4.50
2023-03-07T19:16:29.555Z,4.00
2023-03-07T19:18:57.073Z,4.53
2023-03-07T19:21:26.651Z,4.83
2023-03-07T19:23:55.017Z,5.50
2023-03-07T19:26:22.281Z,4.67
2023-03-07T19:28:54.051Z,4.70
2023-03-07T19:31:32.152Z,5.43
2023-03-07T19:34:01.456Z,4.77
2023-03-07T19:36:29.668Z,5.30
2023-03-07T19:38:59.042Z,5.83
2023-03-07T19:41:27.863Z,6.00
2023-03-07T19:43:56.333Z,6.40
2023-03-07T19:46:23.596Z,6.60
2023-03-07T19:48:50.426Z,7.83
2023-03-07T19:51:19.842Z,8.07
2023-03-07T19:53:47.461Z,7.00
2023-03-07T19:56:19.942Z,6.30
2023-03-07T19:58:47.035Z,6.03
2023-03-07T20:01:17.048Z,5.90
2023-03-07T20:03:44.486Z,6.20
2023-03-07T20:06:26.320Z,5.73
2023-03-07T20:08:54.292Z,5.70
2023-03-07T20:11:29.495Z,6.17
2023-03-07T20:13:58.697Z,5.93
2023-03-07T20:16:29.044Z,6.37
2023-03-07T20:19:00.807Z,6.87
2023-03-07T20:21:28.859Z,13.47
2023-03-07T20:23:59.119Z,8.67
2023-03-07T20:26:31.867Z,9.47
2023-03-07T20:29:00.173Z,8.70
2023-03-07T20:31:27.618Z,8.80
2023-03-07T20:33:54.774Z,14.67
2023-03-07T20:36:24.378Z,19.17
2023-03-07T20:38:53.602Z,17.80
2023-03-07T20:41:22.794Z,11.83
2023-03-07T20:43:51.151Z,9.90
2023-03-07T20:46:20.269Z,9.30
2023-03-07T20:48:48.546Z,9.67
2023-03-07T20:51:18.781Z,12.23
2023-03-07T20:53:50.266Z,10.90
2023-03-07T20:56:17.866Z,9.73
2023-03-07T20:58:44.891Z,8.93
2023-03-07T21:01:12.693Z,8.83
2023-03-07T21:03:39.471Z,9.57
2023-03-07T21:06:06.593Z,10.37
2023-03-07T21:08:35.925Z,10.37
2023-03-07T21:11:05.701Z,11.40
2023-03-07T21:13:35.027Z,11.87
2023-03-07T21:16:08.048Z,12.33
2023-03-07T21:18:34.950Z,12.27
2023-03-07T21:21:03.873Z,13.40
2023-03-07T21:23:30.570Z,13.30
2023-03-07T21:26:05.475Z,13.87
2023-03-07T21:28:32.964Z,14.23
2023-03-07T21:31:08.918Z,14.30
2023-03-07T21:33:35.794Z,14.67
2023-03-07T21:36:04.114Z,14.83
2023-03-07T21:38:31.283Z,14.93
2023-03-07T21:40:58.837Z,15.90
2023-03-07T21:43:25.718Z,16.90
2023-03-07T21:45:52.668Z,16.10
2023-03-07T21:48:20.685Z,18.57
2023-03-07T21:50:51.972Z,22.67
2023-03-07T21:53:19.476Z,24.53
2023-03-07T21:55:54.144Z,26.10
2023-03-07T21:58:21.981Z,20.23
2023-03-07T22:00:49.874Z,18.27
2023-03-07T22:03:16.867Z,17.40
2023-03-07T22:05:44.008Z,17.70
2023-03-07T22:08:11.219Z,17.33
2023-03-07T22:10:37.994Z,18.17
2023-03-07T22:13:06.812Z,17.90
2023-03-07T22:15:34.081Z,17.10
2023-03-07T22:18:00.984Z,18.27
2023-03-07T22:20:27.765Z,16.83
2023-03-07T22:22:54.475Z,17.73
2023-03-07T22:25:21.180Z,19.30
2023-03-07T22:27:47.869Z,18.50
2023-03-07T22:30:14.807Z,19.57
2023-03-07T22:32:44.574Z,18.40
2023-03-07T22:35:11.387Z,17.13
2023-03-07T22:37:38.382Z,17.27
2023-03-07T22:40:06.642Z,18.03
2023-03-07T22:42:34.182Z,15.67
2023-03-07T22:45:00.895Z,17.37
2023-03-07T22:47:29.345Z,16.07
2023-03-07T22:49:56.074Z,15.00
2023-03-07T22:52:22.904Z,16.20
2023-03-07T22:54:53.344Z,15.80
2023-03-07T22:57:20.360Z,16.27
2023-03-07T22:59:49.867Z,14.57
2023-03-07T23:02:16.525Z,13.73
2023-03-07T23:04:43.430Z,13.20
2023-03-07T23:07:10.196Z,12.67
2023-03-07T23:09:36.905Z,13.20
2023-03-07T23:12:03.729Z,13.73
2023-03-07T23:14:30.430Z,13.07
2023-03-07T23:16:58.176Z,13.03
2023-03-07T23:19:24.846Z,12.10
2023-03-07T23:21:54.663Z,11.53
2023-03-07T23:24:21.371Z,10.57
2023-03-07T23:26:48.723Z,10.27
2023-03-07T23:29:15.944Z,9.47
2023-03-07T23:31:44.345Z,10.40
2023-03-07T23:34:19.237Z,10.07
2023-03-07T23:36:46.416Z,9.60
2023-03-07T23:39:14.748Z,9.00
2023-03-07T23:41:41.379Z,9.00
2023-03-07T23:44:08.213Z,9.40
2023-03-07T23:46:35.011Z,8.73
2023-03-07T23:49:02.177Z,8.43
2023-03-07T23:51:29.186Z,8.63
2023-03-07T23:53:55.902Z,8.43
2023-03-07T23:56:23.763Z,7.63
2023-03-07T23:58:51.749Z,8.30
